sensor_id;sensor_type;location;lat;lon;timestamp;temperature;humidity
52415;DHT22;38340;52.964;6.086;2022-09-09T00:01:59;14.10;99.90
52415;DHT22;38340;52.964;6.086;2022-09-09T00:04:31;14.00;99.90
52415;DHT22;38340;52.964;6.086;2022-09-09T00:12:48;13.90;99.90
52415;DHT22;38340;52.964;6.086;2022-09-09T00:15:20;14.00;99.90
52415;DHT22;38340;52.964;6.086;2022-09-09T00:17:56;13.90;99.90
52415;DHT22;38340;52.964;6.086;2022-09-09T00:23:14;13.90;99.90
52415;DHT22;38340;52.964;6.086;2022-09-09T00:28:23;13.80;99.90
52415;DHT22;38340;52.964;6.086;2022-09-09T00:30:50;13.80;99.90
52415;DHT22;38340;52.964;6.086;2022-09-09T00:33:19;13.80;99.90
52415;DHT22;38340;52.964;6.086;2022-09-09T00:35:52;13.80;99.90
52415;DHT22;38340;52.964;6.086;2022-09-09T00:38:37;13.80;99.90
52415;DHT22;38340;52.964;6.086;2022-09-09T00:41:14;13.70;99.90
52415;DHT22;38340;52.964;6.086;2022-09-09T00:43:46;13.80;99.90
52415;DHT22;38340;52.964;6.086;2022-09-09T00:49:11;13.70;99.90
52415;DHT22;38340;52.964;6.086;2022-09-09T00:52:02;13.70;99.90
52415;DHT22;38340;52.964;6.086;2022-09-09T00:57:31;13.80;99.90
52415;DHT22;38340;52.964;6.086;2022-09-09T01:06:16;13.60;99.90
52415;DHT22;38340;52.964;6.086;2022-09-09T01:14:29;13.50;99.90
52415;DHT22;38340;52.964;6.086;2022-09-09T01:16:59;13.50;99.90
52415;DHT22;38340;52.964;6.086;2022-09-09T01:27:32;13.70;99.90
52415;DHT22;38340;52.964;6.086;2022-09-09T01:29:59;13.70;99.90
52415;DHT22;38340;52.964;6.086;2022-09-09T01:35:43;13.80;99.90
52415;DHT22;38340;52.964;6.086;2022-09-09T01:38:11;13.80;99.90
52415;DHT22;38340;52.964;6.086;2022-09-09T01:40:37;13.80;99.90
52415;DHT22;38340;52.964;6.086;2022-09-09T01:43:03;13.80;99.90
52415;DHT22;38340;52.964;6.086;2022-09-09T01:45:29;13.80;99.90
52415;DHT22;38340;52.964;6.086;2022-09-09T01:47:56;13.80;99.90
52415;DHT22;38340;52.964;6.086;2022-09-09T01:50:22;13.90;99.90
52415;DHT22;38340;52.964;6.086;2022-09-09T01:52:55;13.90;99.90
52415;DHT22;38340;52.964;6.086;2022-09-09T01:55:35;13.90;99.90
52415;DHT22;38340;52.964;6.086;2022-09-09T02:01:23;13.90;99.90
52415;DHT22;38340;52.964;6.086;2022-09-09T02:03:56;14.00;99.90
52415;DHT22;38340;52.964;6.086;2022-09-09T02:06:34;13.90;99.90
52415;DHT22;38340;52.964;6.086;2022-09-09T02:09:03;13.90;99.90
52415;DHT22;38340;52.964;6.086;2022-09-09T02:11:30;13.90;99.90
52415;DHT22;38340;52.964;6.086;2022-09-09T02:14:02;13.90;99.90
52415;DHT22;38340;52.964;6.086;2022-09-09T02:16:39;13.80;99.90
52415;DHT22;38340;52.964;6.086;2022-09-09T02:19:25;13.80;99.90
52415;DHT22;38340;52.964;6.086;2022-09-09T02:21:55;13.90;99.90
52415;DHT22;38340;52.964;6.086;2022-09-09T02:24:22;13.90;99.90
52415;DHT22;38340;52.964;6.086;2022-09-09T02:26:51;13.90;99.90
52415;DHT22;38340;52.964;6.086;2022-09-09T02:29:45;13.90;99.90
52415;DHT22;38340;52.964;6.086;2022-09-09T02:32:15;13.80;99.90
52415;DHT22;38340;52.964;6.086;2022-09-09T02:34:48;13.90;99.90
52415;DHT22;38340;52.964;6.086;2022-09-09T02:37:17;14.00;99.90
52415;DHT22;38340;52.964;6.086;2022-09-09T02:39:44;13.90;99.90
52415;DHT22;38340;52.964;6.086;2022-09-09T02:42:09;14.00;99.90
52415;DHT22;38340;52.964;6.086;2022-09-09T02:44:35;14.00;99.90
52415;DHT22;38340;52.964;6.086;2022-09-09T02:58:05;13.90;99.90
52415;DHT22;38340;52.964;6.086;2022-09-09T03:00:33;14.00;99.90
52415;DHT22;38340;52.964;6.086;2022-09-09T03:03:02;14.00;99.90
52415;DHT22;38340;52.964;6.086;2022-09-09T03:05:28;14.00;99.90
52415;DHT22;38340;52.964;6.086;2022-09-09T03:07:54;14.20;99.90
52415;DHT22;38340;52.964;6.086;2022-09-09T03:10:20;14.10;99.90
52415;DHT22;38340;52.964;6.086;2022-09-09T03:12:46;14.10;99.90
52415;DHT22;38340;52.964;6.086;2022-09-09T03:15:11;14.10;99.90
52415;DHT22;38340;52.964;6.086;2022-09-09T03:17:37;14.20;99.90
52415;DHT22;38340;52.964;6.086;2022-09-09T03:20:03;14.20;99.90
52415;DHT22;38340;52.964;6.086;2022-09-09T03:22:29;14.10;99.90
52415;DHT22;38340;52.964;6.086;2022-09-09T03:24:55;14.10;99.90
52415;DHT22;38340;52.964;6.086;2022-09-09T03:27:21;14.20;99.90
52415;DHT22;38340;52.964;6.086;2022-09-09T03:29:46;14.20;99.90
52415;DHT22;38340;52.964;6.086;2022-09-09T03:32:13;14.30;99.90
52415;DHT22;38340;52.964;6.086;2022-09-09T03:34:38;14.20;99.90
52415;DHT22;38340;52.964;6.086;2022-09-09T03:37:07;14.20;99.90
52415;DHT22;38340;52.964;6.086;2022-09-09T03:39:33;14.20;99.90
52415;DHT22;38340;52.964;6.086;2022-09-09T03:41:59;14.20;99.90
52415;DHT22;38340;52.964;6.086;2022-09-09T03:44:24;14.10;99.90
52415;DHT22;38340;52.964;6.086;2022-09-09T03:46:50;14.20;99.90
52415;DHT22;38340;52.964;6.086;2022-09-09T03:49:15;14.20;99.90
52415;DHT22;38340;52.964;6.086;2022-09-09T03:51:42;14.10;99.90
52415;DHT22;38340;52.964;6.086;2022-09-09T03:54:08;14.10;99.90
52415;DHT22;38340;52.964;6.086;2022-09-09T03:56:36;14.10;99.90
52415;DHT22;38340;52.964;6.086;2022-09-09T03:59:02;14.10;99.90
52415;DHT22;38340;52.964;6.086;2022-09-09T04:01:28;14.00;99.90
52415;DHT22;38340;52.964;6.086;2022-09-09T04:03:54;14.00;99.90
52415;DHT22;38340;52.964;6.086;2022-09-09T04:06:24;14.10;99.90
52415;DHT22;38340;52.964;6.086;2022-09-09T04:08:50;14.10;99.90
52415;DHT22;38340;52.964;6.086;2022-09-09T04:11:17;14.10;99.90
52415;DHT22;38340;52.964;6.086;2022-09-09T04:13:43;14.10;99.90
52415;DHT22;38340;52.964;6.086;2022-09-09T04:16:11;14.10;99.90
52415;DHT22;38340;52.964;6.086;2022-09-09T04:18:36;14.10;99.90
52415;DHT22;38340;52.964;6.086;2022-09-09T04:21:03;14.10;99.90
52415;DHT22;38340;52.964;6.086;2022-09-09T04:23:30;14.10;99.90
52415;DHT22;38340;52.964;6.086;2022-09-09T04:25:57;14.10;99.90
52415;DHT22;38340;52.964;6.086;2022-09-09T04:28:26;14.10;99.90
52415;DHT22;38340;52.964;6.086;2022-09-09T04:30:52;14.20;99.90
52415;DHT22;38340;52.964;6.086;2022-09-09T04:33:18;14.20;99.90
52415;DHT22;38340;52.964;6.086;2022-09-09T04:35:49;14.20;99.90
52415;DHT22;38340;52.964;6.086;2022-09-09T04:38:16;14.10;99.90
52415;DHT22;38340;52.964;6.086;2022-09-09T04:40:49;14.30;99.90
52415;DHT22;38340;52.964;6.086;2022-09-09T04:43:15;14.20;99.90
52415;DHT22;38340;52.964;6.086;2022-09-09T04:45:42;14.20;99.90
52415;DHT22;38340;52.964;6.086;2022-09-09T04:48:08;14.20;99.90
52415;DHT22;38340;52.964;6.086;2022-09-09T04:50:35;14.20;99.90
52415;DHT22;38340;52.964;6.086;2022-09-09T04:53:02;14.20;99.90
52415;DHT22;38340;52.964;6.086;2022-09-09T04:55:28;14.20;99.90
52415;DHT22;38340;52.964;6.086;2022-09-09T04:57:54;14.20;99.90
52415;DHT22;38340;52.964;6.086;2022-09-09T05:00:20;14.10;99.90
52415;DHT22;38340;52.964;6.086;2022-09-09T05:02:46;14.20;99.90
52415;DHT22;38340;52.964;6.086;2022-09-09T05:05:12;14.20;99.90
52415;DHT22;38340;52.964;6.086;2022-09-09T05:07:38;14.20;99.90
52415;DHT22;38340;52.964;6.086;2022-09-09T05:10:04;14.10;99.90
52415;DHT22;38340;52.964;6.086;2022-09-09T05:12:30;14.10;99.90
52415;DHT22;38340;52.964;6.086;2022-09-09T05:14:56;14.20;99.90
52415;DHT22;38340;52.964;6.086;2022-09-09T05:17:23;14.20;99.90
52415;DHT22;38340;52.964;6.086;2022-09-09T05:19:48;14.10;99.90
52415;DHT22;38340;52.964;6.086;2022-09-09T05:22:19;14.20;99.90
52415;DHT22;38340;52.964;6.086;2022-09-09T05:24:45;14.10;99.90
52415;DHT22;38340;52.964;6.086;2022-09-09T05:27:11;14.10;99.90
52415;DHT22;38340;52.964;6.086;2022-09-09T05:29:38;14.00;99.90
52415;DHT22;38340;52.964;6.086;2022-09-09T05:32:04;14.10;99.90
52415;DHT22;38340;52.964;6.086;2022-09-09T05:34:30;14.10;99.90
52415;DHT22;38340;52.964;6.086;2022-09-09T05:36:55;14.20;99.90
52415;DHT22;38340;52.964;6.086;2022-09-09T05:39:21;14.10;99.90
52415;DHT22;38340;52.964;6.086;2022-09-09T05:41:47;14.20;99.90
52415;DHT22;38340;52.964;6.086;2022-09-09T05:44:12;14.20;99.90
52415;DHT22;38340;52.964;6.086;2022-09-09T05:46:39;14.10;99.90
52415;DHT22;38340;52.964;6.086;2022-09-09T05:49:05;14.20;99.90
52415;DHT22;38340;52.964;6.086;2022-09-09T05:51:32;14.10;99.90
52415;DHT22;38340;52.964;6.086;2022-09-09T05:53:58;14.20;99.90
52415;DHT22;38340;52.964;6.086;2022-09-09T05:56:26;14.20;99.90
52415;DHT22;38340;52.964;6.086;2022-09-09T05:58:53;14.20;99.90
52415;DHT22;38340;52.964;6.086;2022-09-09T06:01:20;14.20;99.90
52415;DHT22;38340;52.964;6.086;2022-09-09T06:03:47;14.30;99.90
52415;DHT22;38340;52.964;6.086;2022-09-09T06:06:34;14.30;99.90
52415;DHT22;38340;52.964;6.086;2022-09-09T06:09:03;14.30;99.90
52415;DHT22;38340;52.964;6.086;2022-09-09T06:11:32;14.20;99.90
52415;DHT22;38340;52.964;6.086;2022-09-09T06:13:59;14.30;99.90
52415;DHT22;38340;52.964;6.086;2022-09-09T06:16:27;14.30;99.90
52415;DHT22;38340;52.964;6.086;2022-09-09T06:18:54;14.30;99.90
52415;DHT22;38340;52.964;6.086;2022-09-09T06:21:26;14.30;99.90
52415;DHT22;38340;52.964;6.086;2022-09-09T06:23:52;14.30;99.90
52415;DHT22;38340;52.964;6.086;2022-09-09T06:26:21;14.30;99.90
52415;DHT22;38340;52.964;6.086;2022-09-09T06:28:49;14.40;99.90
52415;DHT22;38340;52.964;6.086;2022-09-09T06:31:19;14.40;99.90
52415;DHT22;38340;52.964;6.086;2022-09-09T06:33:49;14.50;99.90
52415;DHT22;38340;52.964;6.086;2022-09-09T06:36:20;14.30;99.90
52415;DHT22;38340;52.964;6.086;2022-09-09T06:38:46;14.50;99.90
52415;DHT22;38340;52.964;6.086;2022-09-09T06:41:14;14.40;99.90
52415;DHT22;38340;52.964;6.086;2022-09-09T06:43:41;14.50;99.90
52415;DHT22;38340;52.964;6.086;2022-09-09T06:46:10;14.50;99.90
52415;DHT22;38340;52.964;6.086;2022-09-09T06:48:36;14.60;99.90
52415;DHT22;38340;52.964;6.086;2022-09-09T06:53:31;14.70;99.90
52415;DHT22;38340;52.964;6.086;2022-09-09T06:56:00;14.70;99.90
52415;DHT22;38340;52.964;6.086;2022-09-09T06:58:28;14.80;99.90
52415;DHT22;38340;52.964;6.086;2022-09-09T07:01:03;14.90;99.90
52415;DHT22;38340;52.964;6.086;2022-09-09T07:03:28;14.90;99.90
52415;DHT22;38340;52.964;6.086;2022-09-09T07:05:55;15.00;99.90
52415;DHT22;38340;52.964;6.086;2022-09-09T07:08:21;14.90;99.90
52415;DHT22;38340;52.964;6.086;2022-09-09T07:10:47;15.00;99.90
52415;DHT22;38340;52.964;6.086;2022-09-09T07:13:13;14.90;99.90
52415;DHT22;38340;52.964;6.086;2022-09-09T07:15:41;15.10;99.90
52415;DHT22;38340;52.964;6.086;2022-09-09T07:18:07;15.10;99.90
52415;DHT22;38340;52.964;6.086;2022-09-09T07:20:34;15.10;99.90
52415;DHT22;38340;52.964;6.086;2022-09-09T07:23:00;15.10;99.90
52415;DHT22;38340;52.964;6.086;2022-09-09T07:25:25;15.10;99.90
52415;DHT22;38340;52.964;6.086;2022-09-09T07:27:54;15.20;99.90
52415;DHT22;38340;52.964;6.086;2022-09-09T07:30:20;15.20;99.90
52415;DHT22;38340;52.964;6.086;2022-09-09T07:32:46;15.30;99.90
52415;DHT22;38340;52.964;6.086;2022-09-09T07:35:12;15.20;99.90
52415;DHT22;38340;52.964;6.086;2022-09-09T07:37:38;15.40;99.90
52415;DHT22;38340;52.964;6.086;2022-09-09T07:40:04;15.30;99.90
52415;DHT22;38340;52.964;6.086;2022-09-09T07:42:31;15.40;99.90
52415;DHT22;38340;52.964;6.086;2022-09-09T07:44:56;15.50;99.90
52415;DHT22;38340;52.964;6.086;2022-09-09T07:47:22;15.60;99.90
52415;DHT22;38340;52.964;6.086;2022-09-09T07:49:50;15.50;99.90
52415;DHT22;38340;52.964;6.086;2022-09-09T07:52:16;15.70;99.90
52415;DHT22;38340;52.964;6.086;2022-09-09T07:54:42;15.80;99.90
52415;DHT22;38340;52.964;6.086;2022-09-09T07:57:10;15.90;99.90
52415;DHT22;38340;52.964;6.086;2022-09-09T07:59:38;16.00;99.90
52415;DHT22;38340;52.964;6.086;2022-09-09T08:02:04;16.10;99.90
52415;DHT22;38340;52.964;6.086;2022-09-09T08:04:30;16.40;99.90
52415;DHT22;38340;52.964;6.086;2022-09-09T08:06:59;16.60;99.90
52415;DHT22;38340;52.964;6.086;2022-09-09T08:09:26;16.80;99.90
52415;DHT22;38340;52.964;6.086;2022-09-09T08:11:54;16.80;99.90
52415;DHT22;38340;52.964;6.086;2022-09-09T08:14:22;17.10;99.90
52415;DHT22;38340;52.964;6.086;2022-09-09T08:16:49;17.20;99.90
52415;DHT22;38340;52.964;6.086;2022-09-09T08:19:16;17.40;99.90
52415;DHT22;38340;52.964;6.086;2022-09-09T08:21:43;17.40;99.90
52415;DHT22;38340;52.964;6.086;2022-09-09T08:24:09;17.50;99.90
52415;DHT22;38340;52.964;6.086;2022-09-09T08:26:43;17.70;99.90
52415;DHT22;38340;52.964;6.086;2022-09-09T08:29:10;17.60;99.90
52415;DHT22;38340;52.964;6.086;2022-09-09T08:31:56;17.60;99.90
52415;DHT22;38340;52.964;6.086;2022-09-09T08:34:24;17.80;99.90
52415;DHT22;38340;52.964;6.086;2022-09-09T08:36:51;18.00;99.90
52415;DHT22;38340;52.964;6.086;2022-09-09T08:39:19;18.40;99.90
52415;DHT22;38340;52.964;6.086;2022-09-09T08:41:57;18.40;99.90
52415;DHT22;38340;52.964;6.086;2022-09-09T08:50:29;18.80;99.90
52415;DHT22;38340;52.964;6.086;2022-09-09T08:53:02;18.80;99.90
52415;DHT22;38340;52.964;6.086;2022-09-09T08:55:43;18.80;99.90
52415;DHT22;38340;52.964;6.086;2022-09-09T08:58:17;18.90;99.90
52415;DHT22;38340;52.964;6.086;2022-09-09T09:01:12;19.00;99.90
52415;DHT22;38340;52.964;6.086;2022-09-09T09:04:05;18.90;99.90
52415;DHT22;38340;52.964;6.086;2022-09-09T09:06:46;19.00;99.90
52415;DHT22;38340;52.964;6.086;2022-09-09T09:09:18;19.10;99.90
52415;DHT22;38340;52.964;6.086;2022-09-09T09:11:53;19.40;99.90
52415;DHT22;38340;52.964;6.086;2022-09-09T09:14:23;19.40;99.90
52415;DHT22;38340;52.964;6.086;2022-09-09T09:17:05;19.40;99.90
52415;DHT22;38340;52.964;6.086;2022-09-09T09:19:35;19.30;99.90
52415;DHT22;38340;52.964;6.086;2022-09-09T09:22:26;19.30;99.90
52415;DHT22;38340;52.964;6.086;2022-09-09T09:25:18;19.20;99.90
52415;DHT22;38340;52.964;6.086;2022-09-09T09:27:57;18.80;99.90
52415;DHT22;38340;52.964;6.086;2022-09-09T09:30:34;18.80;99.90
52415;DHT22;38340;52.964;6.086;2022-09-09T09:33:12;18.60;99.90
52415;DHT22;38340;52.964;6.086;2022-09-09T09:35:40;18.70;99.90
52415;DHT22;38340;52.964;6.086;2022-09-09T09:38:23;18.70;99.90
52415;DHT22;38340;52.964;6.086;2022-09-09T09:40:52;18.70;99.90
52415;DHT22;38340;52.964;6.086;2022-09-09T09:43:25;18.80;99.90
52415;DHT22;38340;52.964;6.086;2022-09-09T09:45:52;19.00;99.90
52415;DHT22;38340;52.964;6.086;2022-09-09T09:48:17;19.10;99.90
52415;DHT22;38340;52.964;6.086;2022-09-09T09:50:55;19.40;99.90
52415;DHT22;38340;52.964;6.086;2022-09-09T09:53:33;19.70;99.90
52415;DHT22;38340;52.964;6.086;2022-09-09T09:56:08;20.00;99.90
52415;DHT22;38340;52.964;6.086;2022-09-09T09:58:54;20.20;99.90
52415;DHT22;38340;52.964;6.086;2022-09-09T10:01:26;20.10;99.90
52415;DHT22;38340;52.964;6.086;2022-09-09T10:04:21;20.10;99.90
52415;DHT22;38340;52.964;6.086;2022-09-09T10:06:49;20.10;99.90
52415;DHT22;38340;52.964;6.086;2022-09-09T10:09:31;20.10;99.90
52415;DHT22;38340;52.964;6.086;2022-09-09T10:15:09;19.50;99.90
52415;DHT22;38340;52.964;6.086;2022-09-09T10:17:53;19.50;99.90
52415;DHT22;38340;52.964;6.086;2022-09-09T10:21:03;19.60;99.90
52415;DHT22;38340;52.964;6.086;2022-09-09T10:31:57;19.90;99.90
52415;DHT22;38340;52.964;6.086;2022-09-09T10:40:33;19.70;99.90
52415;DHT22;38340;52.964;6.086;2022-09-09T10:59:51;20.00;99.90
52415;DHT22;38340;52.964;6.086;2022-09-09T11:02:27;20.00;99.90
52415;DHT22;38340;52.964;6.086;2022-09-09T11:05:10;19.70;99.90
52415;DHT22;38340;52.964;6.086;2022-09-09T11:07:50;19.90;99.90
52415;DHT22;38340;52.964;6.086;2022-09-09T11:10:39;19.80;99.90
52415;DHT22;38340;52.964;6.086;2022-09-09T11:13:23;19.80;99.90
52415;DHT22;38340;52.964;6.086;2022-09-09T11:16:11;19.70;99.90
52415;DHT22;38340;52.964;6.086;2022-09-09T11:18:41;19.60;99.90
52415;DHT22;38340;52.964;6.086;2022-09-09T11:21:34;19.20;99.90
52415;DHT22;38340;52.964;6.086;2022-09-09T11:24:06;19.00;99.90
52415;DHT22;38340;52.964;6.086;2022-09-09T11:26:44;18.70;99.90
52415;DHT22;38340;52.964;6.086;2022-09-09T11:31:44;18.40;99.90
52415;DHT22;38340;52.964;6.086;2022-09-09T11:34:37;18.20;99.90
52415;DHT22;38340;52.964;6.086;2022-09-09T11:44:40;18.50;99.90
52415;DHT22;38340;52.964;6.086;2022-09-09T11:47:27;18.80;99.90
52415;DHT22;38340;52.964;6.086;2022-09-09T11:52:42;19.60;99.90
52415;DHT22;38340;52.964;6.086;2022-09-09T11:55:31;19.80;99.90
52415;DHT22;38340;52.964;6.086;2022-09-09T11:58:18;19.70;99.90
52415;DHT22;38340;52.964;6.086;2022-09-09T12:00:47;19.70;99.90
52415;DHT22;38340;52.964;6.086;2022-09-09T12:06:09;19.80;99.90
52415;DHT22;38340;52.964;6.086;2022-09-09T12:08:37;20.10;99.90
52415;DHT22;38340;52.964;6.086;2022-09-09T12:11:06;20.20;99.90
52415;DHT22;38340;52.964;6.086;2022-09-09T12:13:32;20.20;99.90
52415;DHT22;38340;52.964;6.086;2022-09-09T12:16:00;20.00;99.90
52415;DHT22;38340;52.964;6.086;2022-09-09T12:18:37;19.70;99.90
52415;DHT22;38340;52.964;6.086;2022-09-09T12:23:43;19.70;99.90
52415;DHT22;38340;52.964;6.086;2022-09-09T12:26:47;19.80;99.90
52415;DHT22;38340;52.964;6.086;2022-09-09T12:37:32;19.80;99.90
52415;DHT22;38340;52.964;6.086;2022-09-09T12:40:00;19.80;99.90
52415;DHT22;38340;52.964;6.086;2022-09-09T12:42:27;19.60;99.90
52415;DHT22;38340;52.964;6.086;2022-09-09T12:44:57;19.80;99.90
52415;DHT22;38340;52.964;6.086;2022-09-09T12:49:55;19.60;99.90
52415;DHT22;38340;52.964;6.086;2022-09-09T12:54:50;19.30;99.90
52415;DHT22;38340;52.964;6.086;2022-09-09T12:57:19;19.10;99.90
52415;DHT22;38340;52.964;6.086;2022-09-09T12:59:47;19.00;99.90
52415;DHT22;38340;52.964;6.086;2022-09-09T13:02:24;19.20;99.90
52415;DHT22;38340;52.964;6.086;2022-09-09T13:04:51;19.50;99.90
52415;DHT22;38340;52.964;6.086;2022-09-09T13:07:18;19.70;99.90
52415;DHT22;38340;52.964;6.086;2022-09-09T13:09:45;19.90;99.90
52415;DHT22;38340;52.964;6.086;2022-09-09T13:12:19;19.80;99.90
52415;DHT22;38340;52.964;6.086;2022-09-09T13:14:47;19.70;99.90
52415;DHT22;38340;52.964;6.086;2022-09-09T13:17:27;19.50;99.90
52415;DHT22;38340;52.964;6.086;2022-09-09T13:19:54;19.20;99.90
52415;DHT22;38340;52.964;6.086;2022-09-09T13:22:36;18.80;99.90
52415;DHT22;38340;52.964;6.086;2022-09-09T13:25:18;18.70;99.90
52415;DHT22;38340;52.964;6.086;2022-09-09T13:28:02;18.70;99.90
52415;DHT22;38340;52.964;6.086;2022-09-09T13:30:29;19.00;99.90
52415;DHT22;38340;52.964;6.086;2022-09-09T13:36:01;19.10;99.90
52415;DHT22;38340;52.964;6.086;2022-09-09T13:38:29;19.10;99.90
52415;DHT22;38340;52.964;6.086;2022-09-09T13:40:58;19.10;99.90
52415;DHT22;38340;52.964;6.086;2022-09-09T13:43:27;19.30;99.90
52415;DHT22;38340;52.964;6.086;2022-09-09T13:45:58;19.50;99.90
52415;DHT22;38340;52.964;6.086;2022-09-09T13:48:25;19.80;99.90
52415;DHT22;38340;52.964;6.086;2022-09-09T13:50:56;19.90;99.90
52415;DHT22;38340;52.964;6.086;2022-09-09T13:53:23;20.20;99.90
52415;DHT22;38340;52.964;6.086;2022-09-09T13:55:48;20.20;99.90
52415;DHT22;38340;52.964;6.086;2022-09-09T13:58:16;20.30;99.90
52415;DHT22;38340;52.964;6.086;2022-09-09T14:00:43;20.30;99.90
52415;DHT22;38340;52.964;6.086;2022-09-09T14:03:10;20.40;99.90
52415;DHT22;38340;52.964;6.086;2022-09-09T14:05:35;20.40;99.90
52415;DHT22;38340;52.964;6.086;2022-09-09T14:08:04;20.30;99.90
52415;DHT22;38340;52.964;6.086;2022-09-09T14:10:30;20.30;99.90
52415;DHT22;38340;52.964;6.086;2022-09-09T14:12:56;20.10;99.90
52415;DHT22;38340;52.964;6.086;2022-09-09T14:15:22;20.10;99.90
52415;DHT22;38340;52.964;6.086;2022-09-09T14:17:48;19.90;99.90
52415;DHT22;38340;52.964;6.086;2022-09-09T14:20:14;19.80;99.90
52415;DHT22;38340;52.964;6.086;2022-09-09T14:22:41;19.80;99.90
52415;DHT22;38340;52.964;6.086;2022-09-09T14:25:07;19.60;99.90
52415;DHT22;38340;52.964;6.086;2022-09-09T14:27:33;19.60;99.90
52415;DHT22;38340;52.964;6.086;2022-09-09T14:29:59;19.60;99.90
52415;DHT22;38340;52.964;6.086;2022-09-09T14:32:26;19.70;99.90
52415;DHT22;38340;52.964;6.086;2022-09-09T14:34:52;19.90;99.90
52415;DHT22;38340;52.964;6.086;2022-09-09T14:37:18;19.90;99.90
52415;DHT22;38340;52.964;6.086;2022-09-09T14:39:44;19.70;99.90
52415;DHT22;38340;52.964;6.086;2022-09-09T14:42:12;19.70;99.90
52415;DHT22;38340;52.964;6.086;2022-09-09T14:44:38;19.70;99.90
52415;DHT22;38340;52.964;6.086;2022-09-09T14:47:05;19.70;99.90
52415;DHT22;38340;52.964;6.086;2022-09-09T14:49:30;19.60;99.90
52415;DHT22;38340;52.964;6.086;2022-09-09T14:51:57;19.50;99.90
52415;DHT22;38340;52.964;6.086;2022-09-09T14:54:22;19.40;99.90
52415;DHT22;38340;52.964;6.086;2022-09-09T14:56:48;19.00;99.90
52415;DHT22;38340;52.964;6.086;2022-09-09T14:59:14;18.70;99.90
52415;DHT22;38340;52.964;6.086;2022-09-09T15:01:40;18.60;99.90
52415;DHT22;38340;52.964;6.086;2022-09-09T15:04:06;18.30;99.90
52415;DHT22;38340;52.964;6.086;2022-09-09T15:06:34;18.00;99.90
52415;DHT22;38340;52.964;6.086;2022-09-09T15:09:02;18.00;99.90
52415;DHT22;38340;52.964;6.086;2022-09-09T15:11:29;17.80;99.90
52415;DHT22;38340;52.964;6.086;2022-09-09T15:13:56;17.90;99.90
52415;DHT22;38340;52.964;6.086;2022-09-09T15:16:25;17.90;99.90
52415;DHT22;38340;52.964;6.086;2022-09-09T15:18:53;17.80;99.90
52415;DHT22;38340;52.964;6.086;2022-09-09T15:21:22;18.00;99.90
52415;DHT22;38340;52.964;6.086;2022-09-09T15:23:48;18.10;99.90
52415;DHT22;38340;52.964;6.086;2022-09-09T15:26:15;18.20;99.90
52415;DHT22;38340;52.964;6.086;2022-09-09T15:28:42;18.40;99.90
52415;DHT22;38340;52.964;6.086;2022-09-09T15:31:23;18.50;99.90
52415;DHT22;38340;52.964;6.086;2022-09-09T15:33:53;18.50;99.90
52415;DHT22;38340;52.964;6.086;2022-09-09T15:36:25;18.60;99.90
52415;DHT22;38340;52.964;6.086;2022-09-09T15:38:52;18.80;99.90
52415;DHT22;38340;52.964;6.086;2022-09-09T15:41:20;18.80;99.90
52415;DHT22;38340;52.964;6.086;2022-09-09T15:43:47;19.00;99.90
52415;DHT22;38340;52.964;6.086;2022-09-09T15:48:43;19.30;99.90
52415;DHT22;38340;52.964;6.086;2022-09-09T15:51:10;19.30;99.90
52415;DHT22;38340;52.964;6.086;2022-09-09T15:53:37;19.40;99.90
52415;DHT22;38340;52.964;6.086;2022-09-09T15:56:05;19.40;99.90
52415;DHT22;38340;52.964;6.086;2022-09-09T15:58:32;19.50;99.90
52415;DHT22;38340;52.964;6.086;2022-09-09T16:01:05;19.50;99.90
52415;DHT22;38340;52.964;6.086;2022-09-09T16:03:42;19.60;99.90
52415;DHT22;38340;52.964;6.086;2022-09-09T16:06:08;19.60;99.90
52415;DHT22;38340;52.964;6.086;2022-09-09T16:08:39;19.50;99.90
52415;DHT22;38340;52.964;6.086;2022-09-09T16:11:15;19.40;99.90
52415;DHT22;38340;52.964;6.086;2022-09-09T16:13:44;19.50;99.90
52415;DHT22;38340;52.964;6.086;2022-09-09T16:16:11;19.40;99.90
52415;DHT22;38340;52.964;6.086;2022-09-09T16:18:42;19.30;99.90
52415;DHT22;38340;52.964;6.086;2022-09-09T16:21:17;19.20;99.90
52415;DHT22;38340;52.964;6.086;2022-09-09T16:23:44;19.20;99.90
52415;DHT22;38340;52.964;6.086;2022-09-09T16:26:14;19.30;99.90
52415;DHT22;38340;52.964;6.086;2022-09-09T16:28:40;19.30;99.90
52415;DHT22;38340;52.964;6.086;2022-09-09T16:31:08;19.30;99.90
52415;DHT22;38340;52.964;6.086;2022-09-09T16:33:35;19.10;99.90
52415;DHT22;38340;52.964;6.086;2022-09-09T16:36:09;19.20;99.90
52415;DHT22;38340;52.964;6.086;2022-09-09T16:38:36;19.20;99.90
52415;DHT22;38340;52.964;6.086;2022-09-09T16:41:03;19.10;99.90
52415;DHT22;38340;52.964;6.086;2022-09-09T16:43:34;19.00;99.90
52415;DHT22;38340;52.964;6.086;2022-09-09T16:46:14;19.10;99.90
52415;DHT22;38340;52.964;6.086;2022-09-09T16:48:41;19.00;99.90
52415;DHT22;38340;52.964;6.086;2022-09-09T16:51:15;19.00;99.90
52415;DHT22;38340;52.964;6.086;2022-09-09T16:53:42;19.00;99.90
52415;DHT22;38340;52.964;6.086;2022-09-09T16:56:10;18.90;99.90
52415;DHT22;38340;52.964;6.086;2022-09-09T16:58:36;18.70;99.90
52415;DHT22;38340;52.964;6.086;2022-09-09T17:01:03;18.60;99.90
52415;DHT22;38340;52.964;6.086;2022-09-09T17:03:30;18.60;99.90
52415;DHT22;38340;52.964;6.086;2022-09-09T17:05:57;18.60;99.90
52415;DHT22;38340;52.964;6.086;2022-09-09T17:08:24;18.50;99.90
52415;DHT22;38340;52.964;6.086;2022-09-09T17:10:49;18.40;99.90
52415;DHT22;38340;52.964;6.086;2022-09-09T17:13:15;18.50;99.90
52415;DHT22;38340;52.964;6.086;2022-09-09T17:15:45;18.40;99.90
52415;DHT22;38340;52.964;6.086;2022-09-09T17:18:12;18.30;99.90
52415;DHT22;38340;52.964;6.086;2022-09-09T17:20:41;18.30;99.90
52415;DHT22;38340;52.964;6.086;2022-09-09T17:23:08;18.20;99.90
52415;DHT22;38340;52.964;6.086;2022-09-09T17:25:35;18.20;99.90
52415;DHT22;38340;52.964;6.086;2022-09-09T17:28:01;18.10;99.90
52415;DHT22;38340;52.964;6.086;2022-09-09T17:30:33;18.10;99.90
52415;DHT22;38340;52.964;6.086;2022-09-09T17:33:00;18.00;99.90
52415;DHT22;38340;52.964;6.086;2022-09-09T17:35:25;18.00;99.90
52415;DHT22;38340;52.964;6.086;2022-09-09T17:37:53;17.90;99.90
52415;DHT22;38340;52.964;6.086;2022-09-09T17:40:20;17.90;99.90
52415;DHT22;38340;52.964;6.086;2022-09-09T17:42:46;17.80;99.90
52415;DHT22;38340;52.964;6.086;2022-09-09T17:45:13;17.90;99.90
52415;DHT22;38340;52.964;6.086;2022-09-09T17:47:39;17.80;99.90
52415;DHT22;38340;52.964;6.086;2022-09-09T17:50:09;17.80;99.90
52415;DHT22;38340;52.964;6.086;2022-09-09T17:52:37;17.80;99.90
52415;DHT22;38340;52.964;6.086;2022-09-09T17:55:04;17.80;99.90
52415;DHT22;38340;52.964;6.086;2022-09-09T17:57:29;17.70;99.90
52415;DHT22;38340;52.964;6.086;2022-09-09T17:59:55;17.70;99.90
52415;DHT22;38340;52.964;6.086;2022-09-09T18:02:21;17.60;99.90